Time;durP1;ratioP1;P1;durP2;ratioP2;P2;SDS_P1;SDS_P2;PMS_P1;PMS_P2;Temp;Humidity;BMP_temperature;BMP_pressure;BME280_temperature;BME280_humidity;BME280_pressure;Samples;Min_cycle;Max_cycle;Signal;HPM_P1;HPM_P2
2023/04/01 00:00:52;;;;;;;41.23;9.93;;;;;;;14.75;84.01;99152.84;5090870;28;20373;-67
2023/04/01 00:03:21;;;;;;;39.53;11.40;;;;;;;15.44;79.26;99150.81;5092161;28;20028;-67
2023/04/01 00:05:46;;;;;;;46.07;12.40;;;;;;;15.83;78.67;99146.00;5089803;28;20034;-67
2023/04/01 00:08:12;;;;;;;47.60;11.60;;;;;;;15.19;80.38;99151.31;5088370;28;20031;-67
2023/04/01 00:10:38;;;;;;;68.03;14.37;;;;;;;14.79;83.65;99160.56;5092044;28;20585;-67
2023/04/01 00:13:05;;;;;;;56.30;12.60;;;;;;;14.92;83.80;99166.88;5090311;28;20173;-66
2023/04/01 00:15:30;;;;;;;84.17;21.40;;;;;;;16.67;73.97;99147.13;5089956;28;20028;-66
2023/04/01 00:17:56;;;;;;;82.47;21.27;;;;;;;16.69;74.31;99147.88;5090173;28;20537;-66
2023/04/01 00:20:21;;;;;;;75.30;19.87;;;;;;;16.35;72.19;99151.72;5088000;28;20465;-66
2023/04/01 00:22:47;;;;;;;53.73;15.20;;;;;;;15.86;75.41;99155.50;5089330;28;20114;-66
2023/04/01 00:25:14;;;;;;;52.33;13.93;;;;;;;15.88;75.19;99158.88;5089765;28;20028;-66
2023/04/01 00:27:39;;;;;;;59.43;13.97;;;;;;;16.33;71.20;99162.34;5090283;28;20042;-66
2023/04/01 00:30:06;;;;;;;35.27;10.93;;;;;;;15.63;75.75;99157.63;5089688;28;20119;-66
2023/04/01 00:32:31;;;;;;;37.90;10.03;;;;;;;15.62;77.59;99161.22;5090283;28;20035;-66
2023/04/01 00:34:59;;;;;;;39.53;9.87;;;;;;;15.51;79.00;99174.13;5090416;28;20020;-67
2023/04/01 00:37:25;;;;;;;34.97;9.47;;;;;;;16.04;74.83;99170.22;5089138;28;20020;-68
2023/04/01 00:39:51;;;;;;;34.10;8.63;;;;;;;15.77;74.29;99177.91;5088440;28;20035;-67
2023/04/01 00:42:16;;;;;;;27.47;7.40;;;;;;;15.14;80.61;99186.72;5090420;28;20051;-67
2023/04/01 00:44:42;;;;;;;35.10;10.47;;;;;;;15.15;83.33;99186.63;5091658;28;20028;-66
2023/04/01 00:47:08;;;;;;;39.50;11.00;;;;;;;15.81;78.59;99184.72;5087823;28;20028;-67
2023/04/01 00:49:39;;;;;;;36.73;9.60;;;;;;;15.37;79.60;99175.78;5076860;28;20472;-67
2023/04/01 00:52:07;;;;;;;44.77;11.83;;;;;;;16.39;73.55;99188.38;5051706;28;20135;-67
2023/04/01 00:54:35;;;;;;;30.83;10.13;;;;;;;15.85;74.71;99175.72;5051477;28;20039;-67
2023/04/01 00:57:09;;;;;;;42.33;11.73;;;;;;;16.34;70.79;99182.50;5052917;28;20503;-67
2023/04/01 00:59:47;;;;;;;33.93;8.87;;;;;;;15.40;76.67;99196.66;5052474;28;20394;-67
2023/04/01 01:02:15;;;;;;;36.67;8.67;;;;;;;15.31;80.30;99197.19;5069859;28;20878;-67
2023/04/01 01:04:41;;;;;;;48.97;10.67;;;;;;;15.75;78.04;99193.81;5067070;28;20029;-67
2023/04/01 01:07:31;;;;;;;44.63;10.87;;;;;;;15.55;79.76;99191.47;5051748;28;20073;-67
2023/04/01 01:10:10;;;;;;;29.23;8.53;;;;;;;14.63;84.55;99200.84;5049522;28;20065;-67
2023/04/01 01:12:55;;;;;;;38.10;10.77;;;;;;;15.49;81.92;99191.81;5071013;28;20471;-67
2023/04/01 01:15:24;;;;;;;38.37;10.20;;;;;;;15.34;77.89;99204.91;5051614;28;20028;-67
2023/04/01 01:18:14;;;;;;;39.43;10.53;;;;;;;15.16;81.70;99205.94;5068447;28;20032;-67
2023/04/01 01:20:57;;;;;;;42.13;11.67;;;;;;;15.00;79.08;99201.50;5069711;28;20140;-67
2023/04/01 01:23:32;;;;;;;51.73;12.93;;;;;;;15.44;77.09;99192.94;5050178;28;20036;-68
2023/04/01 01:26:08;;;;;;;39.43;10.33;;;;;;;15.35;78.65;99209.22;5070501;28;20034;-67
2023/04/01 01:29:05;;;;;;;35.00;8.97;;;;;;;14.61;86.74;99205.28;5070150;28;20089;-68
2023/04/01 01:31:50;;;;;;;36.10;8.70;;;;;;;15.14;83.09;99211.28;5048607;28;20447;-67
2023/04/01 01:34:40;;;;;;;27.73;7.90;;;;;;;15.59;79.48;99207.03;5051247;28;20127;-67
2023/04/01 01:37:14;;;;;;;31.40;8.60;;;;;;;15.92;78.76;99202.56;5067595;28;20370;-68
2023/04/01 01:39:42;;;;;;;40.40;11.00;;;;;;;15.99;75.54;99203.91;5070703;28;20028;-69
2023/04/01 01:42:11;;;;;;;28.57;8.20;;;;;;;16.23;73.19;99206.03;5051760;28;20069;-68
2023/04/01 01:44:38;;;;;;;25.57;6.27;;;;;;;15.06;80.90;99219.59;5049587;28;20036;-68
2023/04/01 01:47:07;;;;;;;17.30;5.37;;;;;;;14.98;79.51;99221.78;5050861;28;20384;-67
2023/04/01 01:49:35;;;;;;;23.57;5.90;;;;;;;15.59;79.16;99221.97;5074863;28;20052;-68
2023/04/01 01:52:00;;;;;;;21.93;5.93;;;;;;;15.09;78.50;99219.41;5087971;28;20119;-68
2023/04/01 01:54:26;;;;;;;26.47;7.67;;;;;;;15.98;74.91;99220.66;5089894;28;20560;-67
2023/04/01 01:56:59;;;;;;;28.00;7.20;;;;;;;16.14;74.84;99217.13;5087654;28;20420;-68
2023/04/01 01:59:27;;;;;;;16.07;5.33;;;;;;;14.66;81.65;99241.88;5088699;28;20146;-68
2023/04/01 02:01:55;;;;;;;21.40;7.97;;;;;;;16.03;74.32;99228.28;5087200;28;20032;-68
2023/04/01 02:04:22;;;;;;;26.43;7.87;;;;;;;15.31;77.43;99228.75;5067435;28;20484;-68
2023/04/01 02:06:58;;;;;;;25.13;6.63;;;;;;;15.54;76.87;99230.13;5083526;28;20050;-68
2023/04/01 02:09:24;;;;;;;19.90;6.53;;;;;;;15.02;79.27;99239.09;5089564;28;20075;-68
2023/04/01 02:11:57;;;;;;;21.53;6.93;;;;;;;15.27;77.38;99243.03;5088312;28;20023;-68
2023/04/01 02:14:30;;;;;;;23.90;6.70;;;;;;;15.70;75.01;99243.28;5089138;28;20027;-68
2023/04/01 02:17:06;;;;;;;24.17;8.07;;;;;;;15.81;75.19;99252.38;5070289;28;20074;-67
2023/04/01 02:19:39;;;;;;;20.77;6.83;;;;;;;15.40;75.23;99259.84;5089094;28;20055;-67
2023/04/01 02:22:11;;;;;;;20.43;6.33;;;;;;;15.16;76.89;99262.03;5088866;28;20031;-68
2023/04/01 02:24:39;;;;;;;21.27;6.32;;;;;;;16.48;73.40;99252.03;5088450;28;20028;-67
2023/04/01 02:27:05;;;;;;;17.00;6.70;;;;;;;15.94;73.13;99261.28;5085004;28;20028;-68
2023/04/01 02:29:30;;;;;;;21.20;6.40;;;;;;;15.76;74.16;99261.38;5087366;28;20395;-68
2023/04/01 02:31:56;;;;;;;22.80;7.47;;;;;;;16.01;73.01;99270.53;5087502;28;20036;-68
2023/04/01 02:34:23;;;;;;;29.87;9.03;;;;;;;15.72;76.20;99270.38;5086739;28;20028;-68
2023/04/01 02:36:50;;;;;;;28.73;7.57;;;;;;;15.30;79.69;99274.44;5087830;28;20051;-68
2023/04/01 02:39:16;;;;;;;26.23;7.97;;;;;;;15.19;78.70;99274.19;5085225;28;20028;-68
2023/04/01 02:41:43;;;;;;;25.83;7.53;;;;;;;15.77;78.25;99273.59;5088637;28;20024;-67
2023/04/01 02:44:09;;;;;;;19.33;7.27;;;;;;;15.33;75.32;99271.66;5084490;28;20024;-68
2023/04/01 02:46:35;;;;;;;26.70;8.97;;;;;;;16.47;72.49;99266.16;5087453;28;20020;-68
2023/04/01 02:49:01;;;;;;;22.50;7.30;;;;;;;15.62;76.98;99285.00;5087553;28;20078;-68
2023/04/01 02:51:26;;;;;;;15.60;7.10;;;;;;;14.98;80.89;99274.41;5088624;28;20506;-68
2023/04/01 02:53:52;;;;;;;18.27;7.23;;;;;;;15.47;77.43;99285.84;5085957;28;20032;-67
2023/04/01 02:56:18;;;;;;;24.00;7.63;;;;;;;15.98;75.39;99281.25;5086711;28;20032;-67
2023/04/01 02:58:43;;;;;;;22.90;8.53;;;;;;;15.55;77.00;99289.75;5088270;28;20024;-67
2023/04/01 03:01:08;;;;;;;23.93;10.20;;;;;;;16.31;73.43;99285.53;5086040;28;20085;-67
2023/04/01 03:03:34;;;;;;;33.07;12.53;;;;;;;16.53;72.41;99286.91;5088382;28;20396;-67
2023/04/01 03:06:06;;;;;;;33.00;12.77;;;;;;;16.45;72.81;99290.81;5074456;28;20124;-68
2023/04/01 03:08:31;;;;;;;34.87;13.27;;;;;;;16.04;73.75;99295.88;5075136;28;20024;-67
2023/04/01 03:10:56;;;;;;;32.17;12.63;;;;;;;15.62;73.74;99311.34;5086988;28;20032;-68
2023/04/01 03:13:22;;;;;;;47.47;17.07;;;;;;;16.81;68.82;99298.44;5087187;28;20133;-68
2023/04/01 03:15:47;;;;;;;42.80;16.77;;;;;;;16.07;71.88;99317.66;5086901;28;20086;-67
2023/04/01 03:18:13;;;;;;;39.10;17.47;;;;;;;16.72;70.22;99311.25;5087466;28;20373;-67
2023/04/01 03:20:38;;;;;;;39.37;17.77;;;;;;;16.47;69.77;99319.75;5087822;28;20024;-67
2023/04/01 03:23:03;;;;;;;41.80;15.33;;;;;;;16.07;73.72;99328.19;5086845;28;20024;-68
2023/04/01 03:25:30;;;;;;;45.13;16.63;;;;;;;16.28;72.85;99325.25;5087046;28;20059;-67
2023/04/01 03:27:56;;;;;;;41.17;16.57;;;;;;;16.87;69.62;99327.09;5086455;28;20032;-67
2023/04/01 03:30:21;;;;;;;38.30;16.97;;;;;;;16.95;69.81;99327.50;5086528;28;20476;-67
2023/04/01 03:32:46;;;;;;;40.03;17.50;;;;;;;16.11;74.76;99350.78;5087328;28;20013;-67
2023/04/01 03:35:12;;;;;;;38.07;17.37;;;;;;;15.89;74.63;99350.28;5086034;28;20434;-67
2023/04/01 03:37:37;;;;;;;40.73;17.23;;;;;;;17.12;69.03;99340.53;5088649;28;20051;-67
2023/04/01 03:40:04;;;;;;;41.60;17.70;;;;;;;16.16;71.19;99358.44;5074791;28;20082;-67
2023/04/01 03:42:32;;;;;;;35.00;13.97;;;;;;;16.01;75.57;99365.41;5066626;28;20024;-67
2023/04/01 03:44:57;;;;;;;37.23;14.40;;;;;;;16.37;71.45;99355.50;5066959;28;20021;-67
2023/04/01 03:47:22;;;;;;;32.83;12.33;;;;;;;16.50;71.78;99358.28;5085868;28;20322;-67
2023/04/01 03:49:48;;;;;;;27.07;12.03;;;;;;;16.01;75.57;99369.84;5085628;28;20551;-67
2023/04/01 03:52:13;;;;;;;33.20;10.53;;;;;;;16.15;73.45;99376.97;5086934;28;20483;-67
2023/04/01 03:54:39;;;;;;;33.20;12.30;;;;;;;17.35;67.82;99369.97;5087238;28;20072;-68
2023/04/01 03:57:05;;;;;;;27.30;11.77;;;;;;;17.05;70.64;99372.66;5085809;28;20036;-67
2023/04/01 03:59:30;;;;;;;28.37;11.33;;;;;;;16.98;68.82;99376.63;5087508;28;20476;-67
2023/04/01 04:01:56;;;;;;;32.33;12.87;;;;;;;17.26;66.37;99375.81;5087884;28;20051;-67
2023/04/01 04:04:21;;;;;;;29.73;11.57;;;;;;;17.86;65.20;99382.66;5086955;28;20483;-67
2023/04/01 04:06:47;;;;;;;32.80;12.23;;;;;;;17.87;65.39;99392.28;5084861;28;20553;-68
2023/04/01 04:09:13;;;;;;;32.17;12.60;;;;;;;17.85;65.52;99394.19;5087953;28;20028;-67
2023/04/01 04:11:38;;;;;;;26.27;11.20;;;;;;;18.17;62.74;99398.41;5084685;28;20061;-67
2023/04/01 04:14:04;;;;;;;32.03;12.10;;;;;;;17.90;63.47;99396.53;5087390;28;20028;-67
2023/04/01 04:16:29;;;;;;;27.83;10.97;;;;;;;17.55;64.89;99411.00;5087831;28;20024;-67
2023/04/01 04:18:54;;;;;;;30.30;10.90;;;;;;;16.16;72.84;99418.22;5086094;28;20392;-68
2023/04/01 04:21:20;;;;;;;23.63;9.93;;;;;;;16.71;71.80;99419.50;5086613;28;20505;-67
2023/04/01 04:23:45;;;;;;;26.57;11.60;;;;;;;16.26;73.03;99424.66;5088696;28;20020;-67
2023/04/01 04:26:13;;;;;;;21.30;9.07;;;;;;;15.88;72.38;99427.63;5090652;28;20032;-68
2023/04/01 04:28:39;;;;;;;31.60;11.27;;;;;;;17.49;67.53;99424.59;5090719;28;20383;-67
2023/04/01 04:31:06;;;;;;;35.33;12.53;;;;;;;16.82;69.87;99440.00;5088741;28;20028;-67
2023/04/01 04:33:31;;;;;;;33.97;13.17;;;;;;;16.40;71.10;99443.22;5090422;28;20035;-67
2023/04/01 04:35:58;;;;;;;38.93;12.20;;;;;;;17.11;71.10;99449.69;5090420;28;20020;-68
2023/04/01 04:38:25;;;;;;;33.40;12.77;;;;;;;16.25;69.57;99451.94;5089559;28;20032;-67
2023/04/01 04:40:50;;;;;;;31.00;10.97;;;;;;;16.15;71.62;99456.88;5090656;28;20531;-67
2023/04/01 04:43:16;;;;;;;38.53;13.83;;;;;;;16.49;68.98;99456.81;5089286;28;20031;-67
2023/04/01 04:45:42;;;;;;;34.47;14.40;;;;;;;17.45;67.71;99455.63;5088443;28;20036;-67
2023/04/01 04:48:09;;;;;;;41.13;14.37;;;;;;;17.49;65.56;99458.06;5087019;28;20102;-68
2023/04/01 04:50:35;;;;;;;32.63;12.37;;;;;;;15.40;73.46;99467.84;5069018;28;20021;-67
2023/04/01 04:53:00;;;;;;;35.10;13.47;;;;;;;16.66;70.58;99472.50;5069246;28;20062;-67
2023/04/01 04:55:26;;;;;;;33.67;14.10;;;;;;;17.21;67.12;99472.94;5068492;28;20029;-67
2023/04/01 04:57:51;;;;;;;36.23;14.23;;;;;;;16.80;68.32;99479.63;5070723;28;20630;-67
2023/04/01 05:00:17;;;;;;;38.10;13.97;;;;;;;17.49;64.87;99473.91;5052069;28;20022;-67
2023/04/01 05:02:43;;;;;;;35.27;15.30;;;;;;;16.85;68.48;99482.03;5071344;28;20028;-67
2023/04/01 05:05:08;;;;;;;38.17;14.20;;;;;;;16.55;71.18;99490.75;5069420;28;20093;-67
2023/04/01 05:07:34;;;;;;;37.70;14.40;;;;;;;16.37;70.09;99489.97;5070005;28;20422;-68
2023/04/01 05:09:59;;;;;;;34.70;14.53;;;;;;;16.34;71.06;99501.53;5048923;28;20032;-67
2023/04/01 05:12:25;;;;;;;35.17;15.57;;;;;;;16.77;70.08;99501.78;5070384;28;20488;-67
2023/04/01 05:14:50;;;;;;;38.13;16.07;;;;;;;16.76;69.06;99507.13;5050656;28;20035;-67
2023/04/01 05:17:16;;;;;;;34.13;15.43;;;;;;;16.39;69.88;99517.97;5069403;28;20032;-67
2023/04/01 05:19:41;;;;;;;28.07;13.47;;;;;;;16.39;67.60;99515.34;5065015;28;20020;-67
2023/04/01 05:22:07;;;;;;;33.90;14.10;;;;;;;17.33;66.07;99519.72;5068136;28;20025;-68
2023/04/01 05:24:33;;;;;;;33.23;15.13;;;;;;;17.67;65.44;99523.00;5070069;28;20101;-68
2023/04/01 05:26:59;;;;;;;35.50;14.37;;;;;;;16.31;71.85;99540.41;5069320;28;20434;-68
2023/04/01 05:29:25;;;;;;;41.43;15.00;;;;;;;16.12;70.09;99530.88;5047578;28;20059;-68
2023/04/01 05:31:51;;;;;;;34.77;14.43;;;;;;;16.81;65.91;99538.56;5068359;28;20374;-68
2023/04/01 05:34:16;;;;;;;31.53;13.23;;;;;;;16.27;69.74;99539.75;5052023;28;20032;-68
2023/04/01 05:36:42;;;;;;;33.93;14.27;;;;;;;16.48;69.11;99552.69;5050920;28;20034;-68
2023/04/01 05:39:08;;;;;;;34.63;14.40;;;;;;;16.59;68.45;99550.31;5050315;28;20035;-68
2023/04/01 05:41:38;;;;;;;31.33;14.17;;;;;;;16.37;69.50;99553.25;5069382;28;20032;-67
2023/04/01 05:44:05;;;;;;;38.13;14.10;;;;;;;17.12;65.03;99559.66;5067516;28;20032;-69
2023/04/01 05:46:31;;;;;;;35.00;13.87;;;;;;;16.69;66.16;99562.06;5051454;28;20032;-68
2023/04/01 05:48:57;;;;;;;36.80;13.80;;;;;;;16.95;65.80;99567.66;5068143;28;20411;-68
2023/04/01 05:51:22;;;;;;;38.97;14.47;;;;;;;16.95;65.33;99568.53;5051322;28;20413;-68
2023/04/01 05:53:48;;;;;;;36.83;14.47;;;;;;;16.99;65.13;99574.47;5052135;28;20033;-68
2023/04/01 05:56:13;;;;;;;42.87;15.60;;;;;;;17.23;63.85;99576.69;5048840;28;20123;-67
2023/04/01 05:58:39;;;;;;;41.23;16.17;;;;;;;17.00;63.92;99584.09;5068092;28;20405;-68
2023/04/01 06:01:07;;;;;;;40.77;14.90;;;;;;;16.69;69.57;99588.44;5066223;28;20171;-68
2023/04/01 06:03:32;;;;;;;41.37;14.90;;;;;;;16.44;69.79;99587.16;5069416;28;20033;-67
2023/04/01 06:05:58;;;;;;;36.07;12.90;;;;;;;16.28;70.53;99591.53;5050896;28;20396;-68
2023/04/01 06:08:24;;;;;;;31.77;13.37;;;;;;;16.13;71.82;99594.97;5050589;28;20078;-68
2023/04/01 06:10:53;;;;;;;39.67;13.97;;;;;;;16.19;71.89;99605.19;5044634;28;20028;-68
2023/04/01 06:13:18;;;;;;;32.97;12.67;;;;;;;15.64;72.48;99603.59;5067679;28;20115;-67
2023/04/01 06:15:59;;;;;;;39.13;14.80;;;;;;;16.22;69.15;99610.31;5064609;28;20107;-68
2023/04/01 06:19:03;;;;;;;41.37;14.87;;;;;;;16.05;71.32;99619.94;5065409;28;20060;-67
2023/04/01 06:21:51;;;;;;;38.67;14.27;;;;;;;17.23;65.18;99619.75;5051646;28;20027;-68
2023/04/01 06:24:31;;;;;;;34.60;13.93;;;;;;;16.07;70.43;99623.38;5067273;28;20030;-68
2023/04/01 06:27:03;;;;;;;32.87;14.03;;;;;;;15.90;71.25;99644.47;5068491;28;20032;-69
2023/04/01 06:29:44;;;;;;;38.53;17.00;;;;;;;15.57;73.86;99645.19;5050724;28;20028;-68
2023/04/01 06:32:37;;;;;;;38.97;14.60;;;;;;;15.99;73.26;99649.28;5049766;28;20557;-68
2023/04/01 06:35:34;;;;;;;39.23;16.93;;;;;;;15.09;73.24;99655.41;5063969;28;20116;-68
2023/04/01 06:38:17;;;;;;;33.87;14.97;;;;;;;15.76;72.71;99651.25;5066962;28;20102;-68
2023/04/01 06:40:53;;;;;;;39.43;16.40;;;;;;;15.98;70.77;99660.72;5068751;28;20028;-67
2023/04/01 06:43:37;;;;;;;29.93;13.30;;;;;;;14.95;78.07;99668.34;5049270;28;20123;-68
2023/04/01 06:46:25;;;;;;;34.57;15.83;;;;;;;15.56;75.31;99661.91;5060264;28;20492;-67
2023/04/01 06:49:35;;;;;;;35.80;17.17;;;;;;;15.71;72.32;99658.53;5068236;28;20083;-68
2023/04/01 06:52:21;;;;;;;35.93;16.07;;;;;;;15.68;75.30;99669.22;5037340;28;20048;-68
2023/04/01 06:55:01;;;;;;;34.07;17.40;;;;;;;15.63;77.40;99671.22;4999663;28;20119;-67
2023/04/01 06:57:42;;;;;;;35.77;16.83;;;;;;;15.89;75.78;99672.56;5035570;28;20043;-68
2023/04/01 07:00:24;;;;;;;29.47;13.27;;;;;;;14.76;78.43;99672.66;5049307;28;20031;-68
2023/04/01 07:02:58;;;;;;;38.00;17.58;;;;;;;15.10;77.85;99684.28;5067709;28;20032;-68
2023/04/01 07:05:27;;;;;;;38.27;18.23;;;;;;;15.86;73.96;99682.44;5066478;28;21275;-68
2023/04/01 07:07:59;;;;;;;37.57;18.00;;;;;;;16.39;73.31;99681.47;5065909;28;20384;-68
2023/04/01 07:10:43;;;;;;;35.60;17.27;;;;;;;16.27;70.91;99692.66;5068394;28;20089;-68
2023/04/01 07:13:29;;;;;;;34.37;15.47;;;;;;;16.22;69.99;99697.31;5065380;28;20391;-68
2023/04/01 07:16:10;;;;;;;31.43;14.87;;;;;;;15.64;74.52;99704.53;5067310;28;20028;-68
2023/04/01 07:19:00;;;;;;;35.83;16.23;;;;;;;15.94;70.67;99706.63;5067114;28;21239;-67
2023/04/01 07:21:35;;;;;;;40.27;17.20;;;;;;;16.49;71.20;99707.38;5043726;28;20028;-67
2023/04/01 07:24:17;;;;;;;38.33;16.20;;;;;;;15.97;70.20;99711.72;5063504;28;20039;-68
2023/04/01 07:26:43;;;;;;;35.53;16.15;;;;;;;16.35;70.82;99708.94;5050129;28;20083;-68
2023/04/01 07:29:14;;;;;;;30.00;15.33;;;;;;;15.61;74.35;99717.88;5047867;28;20480;-67
2023/04/01 07:32:04;;;;;;;36.87;15.67;;;;;;;15.65;73.27;99719.41;5049823;28;20024;-68
2023/04/01 07:35:04;;;;;;;32.90;15.90;;;;;;;16.58;69.39;99733.22;5068239;28;20081;-68
2023/04/01 07:37:52;;;;;;;27.87;13.53;;;;;;;16.43;70.41;99729.59;5050604;28;20021;-68
2023/04/01 07:40:21;;;;;;;30.33;14.57;;;;;;;16.23;72.61;99735.94;5048651;28;20032;-68
2023/04/01 07:42:59;;;;;;;31.20;15.37;;;;;;;16.88;69.89;99730.75;5048437;28;20449;-68
2023/04/01 07:45:34;;;;;;;30.87;13.63;;;;;;;16.56;71.20;99745.66;5068160;28;20078;-67
2023/04/01 07:48:15;;;;;;;27.23;12.50;;;;;;;16.52;71.74;99739.69;5050238;28;20589;-67
2023/04/01 07:50:50;;;;;;;24.80;12.30;;;;;;;16.36;71.43;99737.00;5066300;28;20111;-67
2023/04/01 07:53:22;;;;;;;27.67;13.00;;;;;;;16.06;68.82;99744.66;5035017;28;20032;-68
2023/04/01 07:56:00;;;;;;;25.27;12.70;;;;;;;16.26;71.16;99759.50;5058559;28;20025;-68
2023/04/01 07:58:35;;;;;;;22.03;11.27;;;;;;;16.79;69.89;99753.22;5052442;28;20039;-67
2023/04/01 08:01:10;;;;;;;24.53;10.50;;;;;;;15.36;74.67;99748.00;5054092;28;20027;-67
2023/04/01 08:03:49;;;;;;;25.67;11.63;;;;;;;16.00;71.12;99758.16;5052535;28;20050;-68
2023/04/01 08:06:27;;;;;;;33.17;12.03;;;;;;;15.68;73.19;99760.56;5051340;28;20044;-69
2023/04/01 08:09:13;;;;;;;27.53;11.87;;;;;;;16.26;70.96;99764.75;5069099;28;20028;-69
2023/04/01 08:12:00;;;;;;;27.90;11.37;;;;;;;16.20;70.62;99773.00;5069610;28;20036;-69
2023/04/01 08:14:46;;;;;;;25.70;11.33;;;;;;;16.74;68.10;99776.34;5043283;28;20464;-69
2023/04/01 08:17:34;;;;;;;23.33;10.20;;;;;;;15.51;73.41;99782.44;5069701;28;20024;-68
2023/04/01 08:20:26;;;;;;;25.87;10.67;;;;;;;15.55;73.97;99789.25;5053927;28;20133;-68
2023/04/01 08:23:00;;;;;;;31.87;11.77;;;;;;;17.25;69.62;99791.31;5052008;28;20062;-69
2023/04/01 08:25:29;;;;;;;33.20;12.80;;;;;;;16.43;69.67;99798.19;5050702;28;20028;-68
2023/04/01 08:27:57;;;;;;;23.33;10.47;;;;;;;15.18;78.14;99801.50;5053704;28;20021;-69
2023/04/01 08:30:40;;;;;;;27.87;10.67;;;;;;;16.36;71.07;99800.31;5070465;28;20031;-68
2023/04/01 08:33:13;;;;;;;33.50;13.52;;;;;;;17.02;69.16;99805.75;5070119;28;20074;-69
2023/04/01 08:35:46;;;;;;;28.80;12.63;;;;;;;16.31;69.81;99815.50;5069538;28;20037;-69
2023/04/01 08:38:19;;;;;;;26.03;10.67;;;;;;;16.69;70.73;99815.34;5069649;28;20111;-68
2023/04/01 08:41:00;;;;;;;28.35;11.90;;;;;;;16.78;70.84;99814.84;5063367;28;20020;-68
2023/04/01 08:43:29;;;;;;;26.33;10.47;;;;;;;16.91;70.87;99815.09;5058748;28;20087;-68
2023/04/01 08:46:32;;;;;;;29.17;10.50;;;;;;;15.98;73.15;99824.13;5046416;28;20032;-68
2023/04/01 08:49:31;;;;;;;23.33;10.88;;;;;;;16.86;71.27;99818.88;5058203;28;20045;-69
2023/04/01 08:52:04;;;;;;;21.40;8.17;;;;;;;16.57;68.99;99826.53;5032555;28;20040;-69
2023/04/01 08:54:45;;;;;;;21.33;9.88;;;;;;;17.46;67.96;99831.53;5065427;28;20028;-68
2023/04/01 08:57:11;;;;;;;20.73;9.63;;;;;;;16.95;68.08;99832.47;5070899;28;20104;-68
2023/04/01 08:59:54;;;;;;;20.60;9.77;;;;;;;16.78;70.22;99845.66;5069403;28;20115;-68
2023/04/01 09:02:44;;;;;;;22.93;9.77;;;;;;;16.35;70.72;99851.31;5070807;28;20027;-68
2023/04/01 09:05:18;;;;;;;20.03;9.83;;;;;;;16.08;69.82;99846.47;5070166;28;20059;-68
2023/04/01 09:08:08;;;;;;;24.33;10.27;;;;;;;17.19;67.42;99857.66;5069458;28;20062;-68
2023/04/01 09:11:07;;;;;;;20.80;9.37;;;;;;;16.77;70.44;99854.50;5062762;28;20028;-68
2023/04/01 09:14:29;;;;;;;22.47;9.20;;;;;;;17.12;67.97;99860.63;5043600;28;20048;-68
2023/04/01 09:17:01;;;;;;;22.13;8.80;;;;;;;16.00;71.14;99869.69;4972543;28;20038;-68
2023/04/01 09:19:26;;;;;;;21.27;9.43;;;;;;;16.67;67.55;99869.94;5055254;28;20124;-69
2023/04/01 09:21:59;;;;;;;19.83;8.73;;;;;;;16.81;69.13;99871.88;5050825;28;20111;-69
2023/04/01 09:24:43;;;;;;;;;;;;;;;17.87;63.60;99861.91;5052572;28;20038;-68
2023/04/01 09:27:28;;;;;;;19.23;8.87;;;;;;;16.92;68.69;99874.84;5069166;28;20314;-69
2023/04/01 09:30:29;;;;;;;23.33;8.80;;;;;;;17.08;67.92;99879.34;5051351;28;20028;-69
2023/04/01 09:33:09;;;;;;;26.00;10.23;;;;;;;17.08;67.38;99877.56;5070366;28;20476;-68
2023/04/01 09:35:53;;;;;;;26.20;10.10;;;;;;;16.65;67.87;99871.81;5069865;28;20147;-69
2023/04/01 09:38:57;;;;;;;32.10;11.53;;;;;;;17.66;62.32;99872.72;5070054;28;20471;-68
2023/04/01 09:41:54;;;;;;;30.97;11.17;;;;;;;17.84;62.21;99883.22;5056074;28;20043;-68
2023/04/01 09:45:21;;;;;;;24.47;11.10;;;;;;;16.92;67.46;99893.31;5069083;28;20068;-68
2023/04/01 09:48:21;;;;;;;23.07;8.50;;;;;;;16.32;71.71;99891.03;4972984;28;20038;-67
2023/04/01 09:50:55;;;;;;;23.87;8.83;;;;;;;16.92;69.18;99895.13;4987725;28;20503;-68
2023/04/01 09:53:45;;;;;;;16.53;6.43;;;;;;;16.93;68.72;99891.56;5017150;28;20102;-68
2023/04/01 09:56:14;;;;;;;18.30;5.77;;;;;;;16.94;67.74;99898.56;5046947;28;20044;-68
2023/04/01 09:59:04;;;;;;;10.77;5.67;;;;;;;16.84;68.42;99894.63;5050449;28;20042;-68
2023/04/01 10:02:06;;;;;;;12.67;5.60;;;;;;;17.51;64.52;99900.00;5051461;28;20468;-68
2023/04/01 10:04:37;;;;;;;10.27;5.37;;;;;;;16.82;68.38;99904.41;4968219;28;20101;-67
2023/04/01 10:07:05;;;;;;;12.87;5.93;;;;;;;16.75;69.87;99912.63;5052543;28;20125;-67
2023/04/01 10:09:52;;;;;;;16.07;7.07;;;;;;;17.37;65.14;99911.28;5050301;28;20032;-68
2023/04/01 10:12:46;;;;;;;12.40;5.57;;;;;;;16.27;72.53;99911.50;5051033;28;20036;-68
2023/04/01 10:15:25;;;;;;;19.13;7.50;;;;;;;16.94;69.85;99909.09;5067341;28;20249;-68
2023/04/01 10:17:53;;;;;;;17.53;7.70;;;;;;;16.47;70.64;99922.84;5069024;28;20029;-67
2023/04/01 10:20:45;;;;;;;17.53;8.07;;;;;;;16.01;73.23;99918.84;5051320;28;20029;-68
2023/04/01 10:23:39;;;;;;;23.47;9.10;;;;;;;17.30;69.50;99930.09;5048670;28;20043;-68
2023/04/01 10:26:26;;;;;;;20.10;8.60;;;;;;;17.31;66.88;99928.31;5048934;28;20064;-68
2023/04/01 10:29:32;;;;;;;30.43;9.63;;;;;;;16.13;70.95;99935.00;5031260;28;20480;-68
2023/04/01 10:32:18;;;;;;;29.07;10.90;;;;;;;16.85;70.10;99946.47;5031419;28;20507;-68
2023/04/01 10:35:22;;;;;;;28.73;10.63;;;;;;;16.60;72.42;99939.78;5050242;28;20043;-68
2023/04/01 10:38:33;;;;;;;22.20;10.20;;;;;;;17.74;67.63;99939.22;5050431;28;20054;-68
2023/04/01 10:41:13;;;;;;;26.27;11.17;;;;;;;16.51;71.36;99940.22;5068497;28;20039;-68
2023/04/01 10:44:12;;;;;;;30.03;10.20;;;;;;;16.99;68.23;99949.28;5051276;28;20109;-68
2023/04/01 10:47:03;;;;;;;21.63;9.43;;;;;;;16.76;67.17;99938.09;5050280;28;20089;-68
2023/04/01 10:49:34;;;;;;;18.60;8.60;;;;;;;16.47;72.33;99938.66;5074743;28;20056;-69
2023/04/01 10:52:42;;;;;;;22.50;9.53;;;;;;;16.36;71.00;99949.75;5088268;28;20046;-68
2023/04/01 10:55:55;;;;;;;24.33;10.10;;;;;;;16.73;68.85;99953.22;5047554;28;20044;-68
2023/04/01 10:58:41;;;;;;;23.98;9.45;;;;;;;17.08;67.87;99959.41;5018774;28;20044;-69
2023/04/01 11:01:19;;;;;;;25.40;9.70;;;;;;;17.03;69.24;99956.13;5066060;28;20020;-68
2023/04/01 11:04:22;;;;;;;26.07;10.03;;;;;;;17.94;63.60;99955.81;5089303;28;20484;-69
2023/04/01 11:06:56;;;;;;;25.67;9.68;;;;;;;17.45;66.25;99973.34;5088280;28;20043;-69
2023/04/01 11:09:44;;;;;;;24.63;9.20;;;;;;;16.03;72.01;99963.59;5086334;28;20081;-68
2023/04/01 11:12:40;;;;;;;26.10;10.53;;;;;;;16.56;69.62;99975.16;5081592;28;20112;-67
2023/04/01 11:15:38;;;;;;;23.33;8.57;;;;;;;16.37;70.06;99973.41;5070388;28;20032;-68
2023/04/01 11:18:44;;;;;;;22.83;7.23;;;;;;;16.75;72.87;99970.69;5010997;28;20124;-68
2023/04/01 11:21:25;;;;;;;18.43;6.43;;;;;;;16.92;70.40;99977.78;5084326;28;20483;-68
2023/04/01 11:24:08;;;;;;;15.63;7.40;;;;;;;17.25;69.91;99978.81;5084621;28;20081;-69
2023/04/01 11:26:40;;;;;;;14.43;6.37;;;;;;;16.73;73.91;99969.94;5086568;28;20039;-68
2023/04/01 11:29:56;;;;;;;19.87;8.30;;;;;;;18.40;64.09;99971.78;5086533;28;20316;-68
2023/04/01 11:32:33;;;;;;;23.57;9.67;;;;;;;17.79;65.85;99992.72;5008769;28;20111;-68
2023/04/01 11:35:05;;;;;;;20.63;8.57;;;;;;;16.83;70.98;99985.28;5008701;28;20112;-68
2023/04/01 11:38:08;;;;;;;27.77;10.27;;;;;;;17.37;69.95;99996.66;5036386;28;20048;-67
2023/04/01 11:41:12;;;;;;;21.90;9.47;;;;;;;16.60;73.11;99989.91;5009947;28;20029;-68
2023/04/01 11:43:41;;;;;;;;;;;;;;;16.70;70.34;99991.16;5015160;28;20442;-68
2023/04/01 11:46:12;;;;;;;20.13;7.50;;;;;;;16.99;69.97;99996.81;5090507;28;19919;-69
2023/04/01 11:48:59;;;;;;;15.30;7.47;;;;;;;16.76;70.50;99998.78;5089327;28;20047;-69
2023/04/01 11:52:05;;;;;;;18.10;7.67;;;;;;;17.23;69.29;100004.44;5084523;28;20506;-69
2023/04/01 11:54:34;;;;;;;19.63;8.13;;;;;;;17.29;67.71;100006.75;5075019;28;20085;-69
2023/04/01 11:57:24;;;;;;;14.07;7.43;;;;;;;17.15;69.67;100009.28;5085578;28;20477;-69